createdAt,value
2018-12-20T00:01:07.677Z,20.70
2018-12-20T00:03:35.978Z,20.12
2018-12-20T00:06:04.349Z,21.90
2018-12-20T00:08:32.676Z,20.27
2018-12-20T00:11:01.067Z,20.90
2018-12-20T00:13:29.513Z,20.57
2018-12-20T00:15:57.811Z,22.10
2018-12-20T00:18:26.193Z,20.55
2018-12-20T00:20:55.033Z,21.27
2018-12-20T00:23:23.434Z,21.52
2018-12-20T00:25:51.710Z,21.30
2018-12-20T00:28:20.202Z,22.05
2018-12-20T00:30:48.622Z,21.53
2018-12-20T00:33:17.222Z,20.50
2018-12-20T00:35:45.662Z,21.45
2018-12-20T00:38:14.254Z,22.17
2018-12-20T00:40:42.596Z,22.27
2018-12-20T00:43:10.952Z,22.60
2018-12-20T00:45:39.465Z,20.90
2018-12-20T00:48:07.859Z,20.88
2018-12-20T00:50:36.152Z,20.62
2018-12-20T00:53:04.525Z,21.97
2018-12-20T00:55:32.975Z,20.70
2018-12-20T00:58:01.460Z,22.00
2018-12-20T01:00:30.082Z,22.50
2018-12-20T01:02:58.578Z,22.27
2018-12-20T01:05:27.993Z,23.07
2018-12-20T01:07:56.597Z,21.93
2018-12-20T01:10:25.163Z,23.02
2018-12-20T01:12:53.569Z,21.42
2018-12-20T01:15:21.951Z,23.00
2018-12-20T01:17:50.320Z,22.20
2018-12-20T01:20:18.697Z,23.05
2018-12-20T01:22:47.105Z,22.98
2018-12-20T01:25:15.603Z,22.30
2018-12-20T01:27:44.279Z,21.62
2018-12-20T01:30:12.668Z,23.35
2018-12-20T01:32:41.050Z,23.52
2018-12-20T01:35:09.505Z,22.35
2018-12-20T01:37:37.834Z,21.25
2018-12-20T01:40:06.689Z,23.25
2018-12-20T01:42:35.182Z,21.68
2018-12-20T01:45:03.827Z,23.22
2018-12-20T01:47:32.614Z,22.40
2018-12-20T01:50:01.223Z,22.30
2018-12-20T01:52:29.586Z,20.60
2018-12-20T01:54:57.951Z,23.38
2018-12-20T01:57:26.381Z,22.65
2018-12-20T01:59:54.874Z,22.48
2018-12-20T02:02:23.373Z,21.90
2018-12-20T02:04:51.688Z,21.48
2018-12-20T02:07:20.035Z,21.70
2018-12-20T02:09:48.370Z,22.95
2018-12-20T02:12:16.978Z,21.80
2018-12-20T02:14:45.264Z,21.95
2018-12-20T02:17:13.736Z,21.82
2018-12-20T02:19:42.112Z,21.93
2018-12-20T02:22:10.414Z,21.73
2018-12-20T02:24:38.744Z,21.60
2018-12-20T02:27:07.150Z,20.92
2018-12-20T02:29:35.659Z,23.18
2018-12-20T02:32:04.243Z,22.62
2018-12-20T02:34:33.018Z,21.87
2018-12-20T02:37:01.309Z,22.60
2018-12-20T02:39:29.687Z,21.10
2018-12-20T02:41:58.484Z,22.52
2018-12-20T02:44:27.290Z,21.55
2018-12-20T02:46:55.665Z,23.65
2018-12-20T02:49:24.065Z,24.37
2018-12-20T02:51:52.647Z,23.50
2018-12-20T02:54:21.808Z,23.20
2018-12-20T02:56:50.535Z,23.40
2018-12-20T02:59:19.047Z,24.43
2018-12-20T03:01:47.475Z,22.35
2018-12-20T03:04:15.876Z,22.75
2018-12-20T03:06:44.332Z,23.30
2018-12-20T03:09:12.659Z,21.37
2018-12-20T03:11:41.082Z,24.37
2018-12-20T03:14:09.431Z,24.20
2018-12-20T03:16:37.896Z,22.45
2018-12-20T03:19:06.890Z,23.27
2018-12-20T03:21:35.232Z,22.13
2018-12-20T03:24:03.874Z,23.38
2018-12-20T03:26:32.440Z,23.77
2018-12-20T03:29:00.940Z,23.12
2018-12-20T03:31:29.250Z,21.68
2018-12-20T03:33:58.356Z,23.15
2018-12-20T03:36:26.750Z,23.47
2018-12-20T03:38:55.325Z,22.85
2018-12-20T03:41:25.621Z,24.20
2018-12-20T03:43:53.977Z,23.85
2018-12-20T03:46:22.324Z,24.02
2018-12-20T03:48:50.926Z,24.15
2018-12-20T03:51:19.378Z,22.62
2018-12-20T03:53:47.784Z,22.00
2018-12-20T03:56:16.571Z,23.27
2018-12-20T03:58:44.865Z,24.52
2018-12-20T04:01:13.193Z,24.25
2018-12-20T04:03:41.718Z,23.80
2018-12-20T04:06:10.177Z,24.98
2018-12-20T04:08:38.607Z,22.65
2018-12-20T04:11:07.014Z,22.67
2018-12-20T04:13:35.397Z,23.27
2018-12-20T04:16:04.119Z,24.10
2018-12-20T04:18:32.707Z,22.90
2018-12-20T04:21:01.151Z,24.65
2018-12-20T04:23:29.719Z,24.40
2018-12-20T04:25:58.519Z,23.10
2018-12-20T04:28:26.978Z,24.40
2018-12-20T04:30:55.535Z,23.65
2018-12-20T04:33:23.850Z,24.45
2018-12-20T04:35:52.332Z,24.90
2018-12-20T04:38:21.166Z,24.98
2018-12-20T04:40:49.790Z,25.20
2018-12-20T04:43:18.258Z,25.30
2018-12-20T04:45:47.017Z,25.40
2018-12-20T04:48:16.009Z,27.30
2018-12-20T04:50:44.608Z,25.70
2018-12-20T04:53:13.021Z,25.52
2018-12-20T04:55:41.503Z,25.80
2018-12-20T04:58:10.072Z,26.82
2018-12-20T05:00:40.565Z,27.10
2018-12-20T05:03:08.802Z,24.95
2018-12-20T05:05:37.129Z,26.68
2018-12-20T05:08:05.516Z,24.40
2018-12-20T05:10:34.272Z,26.80
2018-12-20T05:13:02.893Z,26.90
2018-12-20T05:15:31.709Z,25.90
2018-12-20T05:18:00.339Z,26.42
2018-12-20T05:20:28.892Z,26.23
2018-12-20T05:22:57.548Z,25.17
2018-12-20T05:25:26.073Z,25.57
2018-12-20T05:27:54.799Z,29.55
2018-12-20T05:30:23.110Z,26.90
2018-12-20T05:32:51.711Z,28.17
2018-12-20T05:35:20.081Z,26.17
2018-12-20T05:37:48.621Z,27.90
2018-12-20T05:40:17.023Z,27.22
2018-12-20T05:42:45.497Z,27.15
2018-12-20T05:45:14.388Z,26.87
2018-12-20T05:47:42.862Z,26.70
2018-12-20T05:50:11.244Z,27.65
2018-12-20T05:52:39.614Z,28.20
2018-12-20T05:55:08.200Z,27.67
2018-12-20T05:57:36.525Z,27.00
2018-12-20T06:00:08.395Z,27.93
2018-12-20T06:02:36.969Z,27.98
2018-12-20T06:05:06.810Z,27.97
2018-12-20T06:07:35.129Z,28.12
2018-12-20T06:10:03.613Z,27.87
2018-12-20T06:12:32.133Z,28.85
2018-12-20T06:15:00.476Z,27.45
2018-12-20T06:17:29.079Z,27.45
2018-12-20T06:19:57.571Z,28.00
2018-12-20T06:22:26.320Z,29.15
2018-12-20T06:24:54.906Z,26.68
2018-12-20T06:27:23.250Z,29.42
2018-12-20T06:29:51.527Z,29.75
2018-12-20T06:32:19.937Z,29.10
2018-12-20T06:34:48.256Z,27.75
2018-12-20T06:37:16.543Z,26.85
2018-12-20T06:39:45.319Z,29.60
2018-12-20T06:42:13.610Z,27.62
2018-12-20T06:44:41.918Z,28.05
2018-12-20T06:47:11.289Z,29.12
2018-12-20T06:49:39.596Z,29.37
2018-12-20T06:52:07.880Z,28.00
2018-12-20T06:54:36.187Z,30.40
2018-12-20T06:57:04.514Z,27.85
2018-12-20T06:59:32.782Z,27.98
2018-12-20T07:02:01.311Z,28.55
2018-12-20T07:04:29.608Z,28.12
2018-12-20T07:06:57.898Z,28.80
2018-12-20T07:09:26.207Z,29.02
2018-12-20T07:11:54.471Z,28.42
2018-12-20T07:14:22.789Z,29.27
2018-12-20T07:16:51.139Z,27.37
2018-12-20T07:19:22.385Z,27.95
2018-12-20T07:21:50.684Z,30.02
2018-12-20T07:24:19.179Z,27.62
2018-12-20T07:26:47.485Z,27.22
2018-12-20T07:29:15.753Z,26.42
2018-12-20T07:31:44.114Z,26.85
2018-12-20T07:34:12.383Z,27.25
2018-12-20T07:36:40.685Z,27.13
2018-12-20T07:39:09.007Z,25.05
2018-12-20T07:41:37.291Z,26.65
2018-12-20T07:44:05.596Z,27.48
2018-12-20T07:46:37.845Z,27.37
2018-12-20T07:49:04.333Z,26.33
2018-12-20T07:51:32.601Z,26.82
2018-12-20T07:54:00.912Z,26.73
2018-12-20T07:56:29.254Z,26.15
2018-12-20T07:58:57.534Z,26.40
2018-12-20T08:01:26.008Z,28.53
2018-12-20T08:03:54.305Z,28.20
2018-12-20T08:06:22.702Z,26.73
2018-12-20T08:08:51.305Z,25.62
2018-12-20T08:11:19.598Z,26.93
2018-12-20T08:13:47.877Z,32.50
2018-12-20T08:16:16.223Z,28.73
2018-12-20T08:18:44.532Z,29.20
2018-12-20T08:21:12.947Z,26.10
2018-12-20T08:23:41.238Z,25.90
2018-12-20T08:26:09.518Z,27.42
2018-12-20T08:28:37.783Z,27.23
2018-12-20T08:31:06.206Z,26.75
2018-12-20T08:33:34.480Z,26.97
2018-12-20T08:36:02.763Z,26.68
2018-12-20T08:38:31.138Z,25.57
2018-12-20T08:40:59.446Z,26.10
2018-12-20T08:43:27.793Z,25.60
2018-12-20T08:45:56.103Z,23.90
2018-12-20T08:48:24.405Z,25.90
2018-12-20T08:50:52.768Z,26.20
2018-12-20T08:53:21.343Z,26.40
2018-12-20T08:55:49.659Z,27.35
2018-12-20T08:58:17.988Z,25.43
2018-12-20T09:00:46.304Z,25.50
2018-12-20T09:03:14.682Z,26.17
2018-12-20T09:05:42.951Z,28.27
2018-12-20T09:08:11.318Z,25.68
2018-12-20T09:10:39.590Z,26.70
2018-12-20T09:13:09.706Z,25.90
2018-12-20T09:15:38.450Z,27.13
2018-12-20T09:18:07.856Z,25.90
2018-12-20T09:20:36.970Z,27.43
2018-12-20T09:23:06.989Z,26.30
2018-12-20T09:25:35.314Z,26.30
2018-12-20T09:30:38.207Z,24.33
2018-12-20T09:33:08.447Z,25.10
2018-12-20T09:35:36.794Z,25.03
2018-12-20T09:38:05.657Z,25.70
2018-12-20T09:40:33.993Z,25.90
2018-12-20T09:43:02.339Z,26.13
2018-12-20T09:45:30.650Z,27.50
2018-12-20T09:48:04.475Z,26.90
2018-12-20T09:50:33.172Z,26.60
2018-12-20T09:53:01.467Z,26.90
2018-12-20T09:55:29.749Z,27.13
2018-12-20T09:57:58.232Z,26.20
2018-12-20T10:00:26.553Z,26.20
2018-12-20T10:02:54.820Z,26.60
2018-12-20T10:05:23.152Z,27.80
2018-12-20T10:07:51.427Z,26.80
2018-12-20T10:10:19.873Z,27.90
2018-12-20T10:12:48.320Z,26.03
2018-12-20T10:15:16.587Z,25.23
2018-12-20T10:17:44.948Z,26.30
2018-12-20T10:20:13.719Z,27.50
2018-12-20T10:22:42.125Z,24.20
2018-12-20T10:25:10.465Z,25.27
2018-12-20T10:27:38.779Z,25.93
2018-12-20T10:30:07.486Z,27.03
2018-12-20T10:32:35.797Z,25.87
2018-12-20T10:35:05.024Z,27.30
2018-12-20T10:37:33.320Z,27.57
2018-12-20T10:40:01.632Z,26.40
2018-12-20T10:42:30.452Z,26.13
2018-12-20T10:44:58.740Z,26.50
2018-12-20T10:47:29.125Z,27.17
2018-12-20T10:49:57.420Z,26.30
2018-12-20T10:52:25.710Z,27.33
2018-12-20T10:54:54.032Z,26.80
2018-12-20T10:57:22.384Z,26.67
2018-12-20T10:59:50.679Z,29.00
2018-12-20T11:02:24.869Z,27.47
2018-12-20T11:04:58.578Z,26.30
2018-12-20T11:07:32.460Z,28.67
2018-12-20T11:10:06.291Z,30.33
2018-12-20T11:12:40.132Z,26.57
2018-12-20T11:15:08.480Z,28.07
2018-12-20T11:17:37.549Z,27.53
2018-12-20T11:20:07.848Z,26.60
2018-12-20T11:22:36.160Z,28.47
2018-12-20T11:25:06.206Z,28.00
2018-12-20T11:27:34.521Z,27.97
2018-12-20T11:30:02.857Z,26.60
2018-12-20T11:32:31.157Z,25.97
2018-12-20T11:34:59.459Z,26.60
2018-12-20T11:37:27.772Z,25.97
2018-12-20T11:39:59.822Z,26.13
2018-12-20T11:42:26.790Z,26.80
2018-12-20T11:44:55.146Z,27.77
2018-12-20T11:47:27.630Z,26.80
2018-12-20T11:49:56.006Z,24.57
2018-12-20T11:52:24.386Z,24.77
2018-12-20T11:54:54.175Z,25.23
2018-12-20T11:57:22.719Z,25.87
2018-12-20T11:59:51.171Z,25.80
2018-12-20T12:02:24.495Z,25.17
2018-12-20T12:04:49.972Z,24.90
2018-12-20T12:07:18.263Z,28.13
2018-12-20T12:09:46.669Z,25.53
2018-12-20T12:12:15.120Z,25.77
2018-12-20T12:14:43.390Z,28.00
2018-12-20T12:17:11.687Z,26.83
2018-12-20T12:19:40.040Z,26.20
2018-12-20T12:22:08.378Z,27.53
2018-12-20T12:24:37.166Z,27.23
2018-12-20T12:27:05.511Z,26.33
2018-12-20T12:29:33.791Z,26.43
2018-12-20T12:32:02.108Z,25.20
2018-12-20T12:34:30.430Z,26.27
2018-12-20T12:36:58.708Z,24.70
2018-12-20T12:39:27.031Z,26.37
2018-12-20T12:41:55.349Z,27.43
2018-12-20T12:44:23.735Z,25.20
2018-12-20T12:46:52.523Z,26.30
2018-12-20T12:49:20.851Z,25.40
2018-12-20T12:51:53.047Z,25.37
2018-12-20T12:54:19.539Z,26.53
2018-12-20T12:56:47.840Z,26.03
2018-12-20T12:59:16.115Z,25.40
2018-12-20T13:01:44.474Z,25.60
2018-12-20T13:04:12.761Z,26.27
2018-12-20T13:06:41.027Z,25.43
2018-12-20T13:09:09.672Z,26.40
2018-12-20T13:11:37.976Z,25.67
2018-12-20T13:14:06.367Z,26.67
2018-12-20T13:16:34.718Z,24.60
2018-12-20T13:19:03.001Z,26.03
2018-12-20T13:21:31.375Z,25.27
2018-12-20T13:23:59.777Z,23.00
2018-12-20T13:26:28.108Z,23.20
2018-12-20T13:28:56.517Z,24.97
2018-12-20T13:31:25.350Z,25.63
2018-12-20T13:33:53.658Z,26.27
2018-12-20T13:36:21.958Z,25.00
2018-12-20T13:38:50.363Z,24.83
2018-12-20T13:41:18.736Z,24.80
2018-12-20T13:43:47.038Z,24.10
2018-12-20T13:46:15.409Z,23.53
2018-12-20T13:48:43.799Z,25.07
2018-12-20T13:51:12.145Z,24.77
2018-12-20T13:53:40.856Z,25.30
2018-12-20T13:56:09.167Z,24.97
2018-12-20T13:58:37.823Z,25.17
2018-12-20T14:01:06.492Z,25.07
2018-12-20T14:03:34.778Z,24.83
2018-12-20T14:06:03.839Z,25.50
2018-12-20T14:08:32.189Z,22.90
2018-12-20T14:11:00.523Z,23.20
2018-12-20T14:13:28.847Z,23.50
2018-12-20T14:15:57.382Z,25.53
2018-12-20T14:18:30.763Z,23.60
2018-12-20T14:20:56.021Z,24.97
2018-12-20T14:23:24.378Z,25.60
2018-12-20T14:25:52.701Z,27.33
2018-12-20T14:28:21.068Z,28.23
2018-12-20T14:30:49.390Z,24.50
2018-12-20T14:33:17.715Z,24.80
2018-12-20T14:35:46.060Z,26.20
2018-12-20T14:38:14.588Z,25.73
2018-12-20T14:40:42.894Z,24.03
2018-12-20T14:43:11.293Z,25.40
2018-12-20T14:45:39.629Z,24.17
2018-12-20T14:48:07.922Z,23.80
2018-12-20T14:50:36.205Z,24.63
2018-12-20T14:53:04.585Z,24.03
2018-12-20T14:55:32.902Z,23.93
2018-12-20T14:58:01.215Z,24.83
2018-12-20T15:00:29.634Z,23.23
2018-12-20T15:02:57.972Z,22.40
2018-12-20T15:05:26.530Z,24.33
2018-12-20T15:07:54.988Z,22.90
2018-12-20T15:10:23.303Z,21.97
2018-12-20T15:12:51.655Z,22.47
2018-12-20T15:15:19.978Z,22.60
2018-12-20T15:17:48.363Z,22.83
2018-12-20T15:20:16.781Z,23.70
2018-12-20T15:22:45.613Z,23.40
2018-12-20T15:25:14.001Z,22.40
2018-12-20T15:27:42.376Z,22.10
2018-12-20T15:30:11.586Z,21.40
2018-12-20T15:32:39.901Z,24.23
2018-12-20T15:35:08.284Z,22.70
2018-12-20T15:37:36.603Z,23.03
2018-12-20T15:40:07.626Z,24.50
2018-12-20T15:42:36.087Z,21.83
2018-12-20T15:45:06.705Z,22.90
2018-12-20T15:47:35.083Z,22.07
2018-12-20T15:50:04.479Z,23.87
2018-12-20T15:52:32.840Z,23.40
2018-12-20T15:55:01.170Z,23.37
2018-12-20T15:57:29.549Z,23.20
2018-12-20T15:59:57.927Z,22.40
2018-12-20T16:02:28.165Z,22.73
2018-12-20T16:04:56.669Z,24.20
2018-12-20T16:07:25.239Z,23.43
2018-12-20T16:09:53.659Z,26.07
2018-12-20T16:12:21.993Z,24.33
2018-12-20T16:14:50.365Z,25.10
2018-12-20T16:17:18.719Z,24.00
2018-12-20T16:19:47.089Z,23.13
2018-12-20T16:22:15.556Z,25.73
2018-12-20T16:24:43.930Z,23.40
2018-12-20T16:27:12.276Z,24.40
2018-12-20T16:29:40.853Z,24.03
2018-12-20T16:32:09.201Z,24.23
2018-12-20T16:34:37.490Z,25.53
2018-12-20T16:37:05.802Z,26.03
2018-12-20T16:39:34.122Z,24.93
2018-12-20T16:42:02.492Z,24.77
2018-12-20T16:44:30.822Z,25.80
2018-12-20T16:46:59.146Z,24.20
2018-12-20T16:49:27.471Z,24.43
2018-12-20T16:51:55.897Z,26.10
2018-12-20T16:54:24.261Z,25.87
2018-12-20T16:56:52.635Z,25.50
2018-12-20T16:59:21.148Z,26.30
2018-12-20T17:01:49.431Z,26.13
2018-12-20T17:04:17.811Z,26.80
2018-12-20T17:06:46.306Z,28.73
2018-12-20T17:09:14.618Z,26.60
2018-12-20T17:11:42.944Z,25.30
2018-12-20T17:14:11.450Z,27.47
2018-12-20T17:16:39.799Z,27.70
2018-12-20T17:19:08.208Z,24.90
2018-12-20T17:21:36.715Z,25.47
2018-12-20T17:26:39.569Z,27.40
2018-12-20T17:29:07.898Z,24.93
2018-12-20T17:31:36.220Z,26.00
2018-12-20T17:34:04.956Z,23.53
2018-12-20T17:36:33.341Z,24.53
2018-12-20T17:39:01.700Z,24.47
2018-12-20T17:41:30.045Z,24.10
2018-12-20T17:43:58.355Z,24.73
2018-12-20T17:46:26.746Z,26.50
2018-12-20T17:48:55.078Z,27.10
2018-12-20T17:51:23.407Z,24.07
2018-12-20T17:53:51.765Z,25.03
2018-12-20T17:56:20.507Z,26.63
2018-12-20T17:58:48.895Z,23.90
2018-12-20T18:01:17.326Z,25.30
2018-12-20T18:03:45.700Z,23.33
2018-12-20T18:06:14.163Z,23.90
2018-12-20T18:08:42.492Z,23.53
2018-12-20T18:11:10.811Z,23.33
2018-12-20T18:13:39.115Z,23.47
2018-12-20T18:16:07.482Z,22.10
2018-12-20T18:18:35.939Z,23.37
2018-12-20T18:21:04.303Z,23.13
2018-12-20T18:23:32.638Z,24.50
2018-12-20T18:26:01.089Z,25.57
2018-12-20T18:28:29.419Z,23.00
2018-12-20T18:30:57.795Z,23.27
2018-12-20T18:33:26.167Z,22.60
2018-12-20T18:35:54.437Z,23.83
2018-12-20T18:38:22.756Z,23.80
2018-12-20T18:40:51.607Z,23.40
2018-12-20T18:43:19.956Z,24.47
2018-12-20T18:45:48.290Z,22.07
2018-12-20T18:48:16.614Z,23.93
2018-12-20T18:50:44.930Z,27.00
2018-12-20T18:53:13.356Z,23.90
2018-12-20T18:55:41.680Z,23.80
2018-12-20T18:58:09.995Z,23.20
2018-12-20T19:00:38.468Z,20.43
2018-12-20T19:03:07.608Z,17.60
2018-12-20T19:05:35.927Z,18.83
2018-12-20T19:08:04.284Z,17.03
2018-12-20T19:10:32.644Z,16.70
2018-12-20T19:13:00.961Z,18.20
2018-12-20T19:15:29.288Z,19.80
2018-12-20T19:17:57.685Z,22.50
2018-12-20T19:20:25.994Z,19.20
2018-12-20T19:22:54.340Z,20.00
2018-12-20T19:25:23.404Z,19.57
2018-12-20T19:27:51.847Z,20.63
2018-12-20T19:30:20.174Z,20.37
2018-12-20T19:32:48.536Z,19.73
2018-12-20T19:35:16.912Z,19.27
2018-12-20T19:37:45.344Z,17.43
2018-12-20T19:40:13.710Z,20.40
2018-12-20T19:42:42.004Z,17.70
2018-12-20T19:45:10.360Z,18.90
2018-12-20T19:47:38.958Z,18.43
2018-12-20T19:50:08.828Z,19.10
2018-12-20T19:52:37.195Z,18.33
2018-12-20T19:55:06.483Z,17.20
2018-12-20T19:57:34.791Z,17.50
2018-12-20T20:00:05.062Z,19.00
2018-12-20T20:02:33.533Z,16.10
2018-12-20T20:05:01.950Z,16.60
2018-12-20T20:07:30.276Z,15.17
2018-12-20T20:09:58.796Z,15.90
2018-12-20T20:12:27.135Z,16.80
2018-12-20T20:14:55.512Z,16.40
2018-12-20T20:17:23.892Z,17.00
2018-12-20T20:19:59.573Z,17.27
2018-12-20T20:22:22.689Z,15.37
2018-12-20T20:24:51.072Z,16.63
2018-12-20T20:27:19.380Z,15.70
2018-12-20T20:29:47.721Z,16.00
2018-12-20T20:32:16.390Z,16.13
2018-12-20T20:34:44.721Z,15.97
2018-12-20T20:37:13.037Z,15.10
2018-12-20T20:39:41.443Z,15.70
2018-12-20T20:42:09.761Z,15.53
2018-12-20T20:44:38.088Z,15.00
2018-12-20T20:47:06.429Z,14.77
2018-12-20T20:49:34.755Z,13.20
2018-12-20T20:52:03.171Z,13.77
2018-12-20T20:54:31.863Z,14.90
2018-12-20T20:57:00.217Z,14.50
2018-12-20T20:59:28.536Z,14.87
2018-12-20T21:01:56.914Z,13.60
2018-12-20T21:04:25.388Z,14.30
2018-12-20T21:06:53.710Z,14.37
2018-12-20T21:09:22.081Z,13.53
2018-12-20T21:11:50.481Z,14.03
2018-12-20T21:14:18.850Z,12.40
2018-12-20T21:16:47.315Z,11.97
2018-12-20T21:19:15.703Z,12.37
2018-12-20T21:21:44.053Z,12.77
2018-12-20T21:24:12.407Z,11.90
2018-12-20T21:26:40.741Z,12.07
2018-12-20T21:29:09.074Z,12.17
2018-12-20T21:31:37.417Z,11.60
2018-12-20T21:34:05.788Z,10.63
2018-12-20T21:36:34.196Z,10.83
2018-12-20T21:39:02.670Z,10.90
2018-12-20T21:41:31.070Z,10.30
2018-12-20T21:43:59.421Z,9.73
2018-12-20T21:46:27.788Z,10.30
2018-12-20T21:48:56.098Z,10.37
2018-12-20T21:51:24.476Z,10.60
2018-12-20T21:53:54.941Z,11.10
2018-12-20T21:56:23.160Z,9.57
2018-12-20T21:58:51.500Z,10.23
2018-12-20T22:01:20.168Z,10.67
2018-12-20T22:03:48.499Z,10.43
2018-12-20T22:06:16.903Z,10.60
2018-12-20T22:08:45.270Z,10.43
2018-12-20T22:11:13.655Z,10.67
2018-12-20T22:13:41.994Z,11.40
2018-12-20T22:16:10.344Z,10.30
2018-12-20T22:18:38.842Z,11.20
2018-12-20T22:21:07.326Z,10.10
2018-12-20T22:23:35.903Z,9.30
2018-12-20T22:26:04.635Z,9.90
2018-12-20T22:28:32.936Z,9.70
2018-12-20T22:31:01.293Z,9.93
2018-12-20T22:33:29.627Z,10.10
2018-12-20T22:35:57.973Z,10.43
2018-12-20T22:38:26.289Z,8.67
2018-12-20T22:40:54.626Z,9.40
2018-12-20T22:43:22.937Z,9.43
2018-12-20T22:45:51.388Z,9.73
2018-12-20T22:48:19.678Z,9.27
2018-12-20T22:50:55.767Z,10.10
2018-12-20T22:53:18.385Z,9.73
2018-12-20T22:55:46.725Z,9.37
2018-12-20T22:58:15.108Z,9.40
2018-12-20T23:00:46.195Z,9.90
2018-12-20T23:03:14.531Z,9.40
2018-12-20T23:05:42.820Z,8.80
2018-12-20T23:08:11.469Z,9.20
2018-12-20T23:10:39.791Z,9.50
2018-12-20T23:13:08.117Z,9.47
2018-12-20T23:15:36.529Z,9.10
2018-12-20T23:18:04.898Z,9.60
2018-12-20T23:20:33.217Z,8.93
2018-12-20T23:23:01.583Z,9.10
2018-12-20T23:25:29.930Z,10.30
2018-12-20T23:27:58.254Z,9.87
2018-12-20T23:30:27.059Z,9.30
2018-12-20T23:32:55.365Z,8.67
2018-12-20T23:35:23.716Z,9.50
2018-12-20T23:37:52.049Z,9.30
2018-12-20T23:40:20.358Z,9.23
2018-12-20T23:42:48.654Z,9.47
2018-12-20T23:45:16.982Z,9.17
2018-12-20T23:47:45.353Z,9.17
2018-12-20T23:50:13.701Z,9.20
2018-12-20T23:52:42.968Z,10.07
2018-12-20T23:55:11.353Z,9.60
2018-12-20T23:57:39.708Z,9.47
